Terminal Aerodrome Forecast
Issued by NWS Kansas City/Pleasant Hill, MO

Home | Current Version | Previous Version | Text Only | Print | Product List | Glossary On
Versions: 1 2 3 4 5 6 7 8 9 10 11 12 13 14 15 16 17 18 19 20
000
FTUS43 KEAX 192100 AAA
TAFMCI
TAF AMD
KMCI 192108Z 1921/2018 16010KT P6SM BKN015
     FM192230 17010KT P6SM BKN023
     FM200000 17010KT P6SM SCT023
     FM200500 19008KT 4SM BR BKN004
     FM201400 22010KT P6SM SCT050=

USA.gov is the U.S. government's official web portal to all federal, state and local government web resources and services.